1994 ZELDA (1994298N25161)


On this page: IBTrACS data - Map and Plots - Positions - Intensities - Original source data

Summary

Start Oct 25
End Nov 10
Basin WP
LMI 135 kt
Sources jtwc_wp
tokyo
cma
hko
In WMO? Yes
Related storms 1994295N25188
Previous storm 1994 YURI (EP)
Previous in basin 1994 YURI (EP)
Concurrent storms 1994 VERNE (WP)
1994 TERESA (WP)
1994 WILDA (WP)
1994 NONA (EP)
1994 YURI (EP)
1994 ZELDA (WP)
1994 MISSING (NI)
1994 FLORENCE (NA)
1994 GORDON (NA)
Next in basin Missing
Next storm 1994 MISSING (NI)

top of page IBTrACS Data: File Access

top of page HURSAT Data: File Access

Image of storm

top of page Plots:

Map of storm track will not appear if FTP is down
Time series of cyclone Maximum Sustained Wind will not appear if FTP is down
Time series of cyclone Minimum Central Pressure will not appear if FTP is down

top of page Track Data:Position

jtwc_wp tokyo cma hko
Date Lat Lon Lat Lon Lat Lon Lat Lon
1994-10-25 00:00:00 24.5 160.6
1994-10-25 06:00:00 24.1 161.4
1994-10-25 12:00:00 23.7 162.2
1994-10-25 18:00:00 23.3 162.9
1994-10-26 00:00:00 22.9 163.7 23.3 164.3
1994-10-26 06:00:00 22.4 164.4 22.6 165.0
1994-10-26 12:00:00 21.9 165.1 22.0 166.0
1994-10-26 18:00:00 21.3 165.8 21.3 167.0
1994-10-27 00:00:00 20.7 166.6 20.5 167.7
1994-10-27 06:00:00 20.0 167.2 19.7 168.1
1994-10-27 12:00:00 19.3 167.5 18.8 168.4
1994-10-27 18:00:00 18.6 167.4 18.2 168.2
1994-10-28 00:00:00 17.9 167.0 17.5 167.7
1994-10-28 06:00:00 17.2 166.4 17.0 167.0 16.9 166.9
1994-10-28 12:00:00 16.5 165.8 16.5 166.4 17.0 166.7 16.3 166.3
1994-10-28 18:00:00 15.8 165.1 15.8 165.9 15.9 165.8 15.7 165.6
1994-10-29 00:00:00 15.2 164.4 15.2 165.2 15.1 165.0 15.1 164.9
1994-10-29 06:00:00 14.6 163.8 14.6 164.4 14.6 163.9 14.6 164.2
1994-10-29 12:00:00 14.1 163.2 14.1 163.2 14.0 163.1 14.1 163.5
1994-10-29 18:00:00 13.6 162.5 13.6 162.4 13.7 162.4 13.7 162.7
1994-10-30 00:00:00 13.1 161.8 13.2 161.8 13.1 161.8 13.2 161.9
1994-10-30 06:00:00 12.6 160.9 12.5 161.2 12.5 161.2 12.7 161.2
1994-10-30 12:00:00 12.0 159.8 11.6 160.0 11.5 159.9 12.1 160.2
1994-10-30 18:00:00 11.4 158.6 10.9 158.6 11.1 158.5 11.3 158.7
1994-10-31 00:00:00 10.8 157.3 10.5 157.0 10.7 156.9 10.5 157.1
jtwc_wp tokyo cma hko
1994-10-31 06:00:00 10.3 156.1 10.2 155.7 10.5 155.7 10.1 155.6
1994-10-31 12:00:00 9.9 154.8 9.9 154.8 10.3 154.4 9.9 154.5
1994-10-31 18:00:00 9.8 153.6 9.7 153.9 10.1 153.5 9.7 153.5
1994-11-01 00:00:00 9.9 152.4 9.6 152.5 9.8 152.5 9.6 152.5
1994-11-01 06:00:00 10.1 151.3 9.8 151.5 9.9 151.6 9.7 151.6
1994-11-01 12:00:00 10.4 150.3 10.1 150.9 10.0 150.9 10.0 150.8
1994-11-01 18:00:00 10.9 149.6 10.5 150.2 10.4 150.0 10.5 150.1
1994-11-02 00:00:00 11.6 149.0 11.2 149.6 11.4 149.7 11.2 149.5
1994-11-02 06:00:00 12.4 148.5 12.2 148.8 12.3 148.8 12.0 148.8
1994-11-02 12:00:00 13.3 147.9 13.0 148.1 13.0 148.1 13.0 148.1
1994-11-02 18:00:00 14.3 147.3 14.2 147.4 14.2 147.5 14.1 147.3
1994-11-03 00:00:00 15.3 146.6 15.2 146.6 15.3 146.6 15.1 146.5
1994-11-03 06:00:00 16.2 145.6 16.2 145.8 16.3 145.8 16.1 145.8
1994-11-03 12:00:00 17.0 144.7 17.1 144.9 17.1 144.9 17.0 144.9
1994-11-03 18:00:00 17.6 143.7 17.7 143.8 17.8 143.8 17.7 143.8
1994-11-04 00:00:00 18.0 142.6 18.0 142.8 18.1 142.7 18.1 142.6
1994-11-04 06:00:00 18.3 141.4 18.3 141.4 18.4 141.4 18.3 141.4
1994-11-04 12:00:00 18.6 140.1 18.5 140.1 18.5 140.1 18.4 140.2
1994-11-04 18:00:00 18.9 138.8 18.6 138.9 18.6 138.9 18.6 139.0
1994-11-05 00:00:00 19.4 137.5 19.1 137.7 19.1 137.7 19.0 137.7
1994-11-05 06:00:00 20.0 136.3 19.9 136.4 19.9 136.4 19.8 136.4
1994-11-05 12:00:00 20.9 135.3 20.9 135.3 20.9 135.3 20.8 135.3
1994-11-05 18:00:00 21.8 134.3 21.9 134.3 21.9 134.3 21.8 134.3
1994-11-06 00:00:00 22.8 133.6 22.7 133.7 22.7 133.7 22.8 133.6
jtwc_wp tokyo cma hko
1994-11-06 06:00:00 23.8 133.2 23.8 133.2 23.8 133.2 23.7 133.2
1994-11-06 12:00:00 24.8 133.5 24.8 133.3 24.8 133.3 24.7 133.2
1994-11-06 18:00:00 25.9 134.0 25.8 133.7 25.8 133.7 25.8 133.7
1994-11-07 00:00:00 27.2 134.9 27.1 134.5 27.3 134.8 27.1 134.5
1994-11-07 06:00:00 28.5 136.3 28.4 135.4 28.7 136.0 28.2 135.5
1994-11-07 12:00:00 29.6 138.1 29.5 137.4 29.4 137.5 29.2 137.0
1994-11-07 18:00:00 30.5 139.7 30.2 139.7 30.2 139.6
1994-11-08 00:00:00 30.9 141.1 30.7 141.6 30.9 141.7
1994-11-08 06:00:00 30.7 142.0 30.4 142.1 31.0 143.0
1994-11-08 12:00:00 30.5 142.6 30.2 142.3
1994-11-08 18:00:00 30.2 142.8 30.1 142.7
1994-11-09 00:00:00 30.0 142.7 30.1 143.0
1994-11-09 06:00:00 30.1 142.5 30.2 143.1
1994-11-09 12:00:00 30.2 142.7
1994-11-09 18:00:00 30.3 143.2
1994-11-10 00:00:00 30.4 144.1
1994-11-10 06:00:00 30.6 145.5

top of pageTrack Data:Intensity

jtwc_wp tokyo cma hko
Date Wind Pres Wind Pres Wind Pres Wind Pres
1994-10-25 00:00:00 15.
1994-10-25 06:00:00 15.
1994-10-25 12:00:00 15.
1994-10-25 18:00:00 15.
1994-10-26 00:00:00 15. 1008.
1994-10-26 06:00:00 15. 1008.
1994-10-26 12:00:00 20. 1008.
1994-10-26 18:00:00 20. 1008.
1994-10-27 00:00:00 20. 1008.
1994-10-27 06:00:00 20. 1006.
1994-10-27 12:00:00 25. 1006.
1994-10-27 18:00:00 25. 1006.
1994-10-28 00:00:00 25. 1006.
1994-10-28 06:00:00 25. 1004. 25. 1004.
1994-10-28 12:00:00 30. 1004. 23. 1004. 25. 1004.
1994-10-28 18:00:00 30. 1004. 23. 1004. 30. 1000.
1994-10-29 00:00:00 30. 1004. 23. 1004. 30. 1000.
1994-10-29 06:00:00 35. 1004. 29. 1002. 30. 1000.
1994-10-29 12:00:00 35. 1004. 29. 1002. 30. 1000.
1994-10-29 18:00:00 40. 1004. 29. 1002. 30. 1000.
1994-10-30 00:00:00 40. 1002. 29. 1002. 30. 1000.
1994-10-30 06:00:00 45. 1002. 29. 1002. 30. 1000.
1994-10-30 12:00:00 45. 1002. 29. 1002. 30. 1000.
1994-10-30 18:00:00 50. 1002. 29. 1002. 35. 998.
1994-10-31 00:00:00 50. 1002. 29. 1000. 40. 994.
jtwc_wp tokyo cma hko
1994-10-31 06:00:00 55. 1000. 29. 1000. 40. 994.
1994-10-31 12:00:00 55. 35. 998. 29. 1000. 40. 994.
1994-10-31 18:00:00 60. 40. 994. 39. 995. 45. 990.
1994-11-01 00:00:00 60. 45. 990. 39. 995. 45. 990.
1994-11-01 06:00:00 65. 50. 985. 49. 985. 50. 985.
1994-11-01 12:00:00 70. 50. 985. 49. 985. 50. 985.
1994-11-01 18:00:00 75. 55. 980. 58. 980. 55. 980.
1994-11-02 00:00:00 80. 55. 980. 58. 980. 60. 975.
1994-11-02 06:00:00 85. 55. 980. 58. 980. 60. 975.
1994-11-02 12:00:00 85. 60. 975. 58. 980. 65. 970.
1994-11-02 18:00:00 90. 65. 970. 58. 975. 65. 970.
1994-11-03 00:00:00 90. 70. 965. 68. 970. 70. 965.
1994-11-03 06:00:00 95. 75. 960. 78. 960. 80. 955.
1994-11-03 12:00:00 105. 75. 955. 78. 960. 80. 955.
1994-11-03 18:00:00 115. 80. 950. 87. 955. 85. 950.
1994-11-04 00:00:00 125. 85. 940. 87. 950. 85. 950.
1994-11-04 06:00:00 135. 90. 930. 97. 940. 90. 945.
1994-11-04 12:00:00 135. 100. 920. 107. 930. 95. 940.
1994-11-04 18:00:00 135. 105. 910. 117. 920. 100. 930.
1994-11-05 00:00:00 135. 105. 910. 117. 920. 110. 920.
1994-11-05 06:00:00 135. 105. 910. 117. 920. 110. 920.
1994-11-05 12:00:00 135. 105. 915. 117. 920. 100. 930.
1994-11-05 18:00:00 135. 100. 925. 107. 930. 95. 940.
1994-11-06 00:00:00 130. 95. 930. 107. 930. 90. 945.
jtwc_wp tokyo cma hko
1994-11-06 06:00:00 130. 90. 935. 97. 940. 85. 950.
1994-11-06 12:00:00 125. 90. 940. 97. 940. 80. 955.
1994-11-06 18:00:00 115. 85. 945. 87. 950. 75. 960.
1994-11-07 00:00:00 100. 75. 955. 78. 960. 70. 965.
1994-11-07 06:00:00 85. 70. 965. 68. 970. 65. 970.
1994-11-07 12:00:00 75. 65. 975. 58. 980. 60. 975.
1994-11-07 18:00:00 65. 55. 985. 58. 980.
1994-11-08 00:00:00 55. 994. 39. 990.
1994-11-08 06:00:00 45. 1002. 29. 1000.
1994-11-08 12:00:00 40. 1010.
1994-11-08 18:00:00 40. 1014.
1994-11-09 00:00:00 35. 1016.
1994-11-09 06:00:00 30. 1018.
1994-11-09 12:00:00 30.
1994-11-09 18:00:00 25.
1994-11-10 00:00:00 25.
1994-11-10 06:00:00 20.

top of page Links to source data

Source Source file Format
jtwc_wp bwp371994.txt ATCF
tokyo bst_all.txt:Line=44798:ZELDA:9434 JMA text table
cma CH1994BST.txt:Storm=37:Zelda CMA text table
hko tc-besttrack-data.txt:Line=24771:ZELDA HKO Text table